createdAt,value
2023-10-02T00:01:10.804Z,144263.53
2023-10-02T00:03:40.749Z,144308.28
2023-10-02T00:06:10.907Z,144297.44
2023-10-02T00:08:43.983Z,144290.16
2023-10-02T00:11:37.809Z,144287.75
2023-10-02T00:14:19.268Z,144273.19
2023-10-02T00:17:00.602Z,144265.97
2023-10-02T00:19:38.326Z,144192.13
2023-10-02T00:22:33.940Z,144256.28
2023-10-02T00:25:02.440Z,144236.91
2023-10-02T00:27:33.294Z,144142.59
2023-10-02T00:30:00.661Z,144148.63
2023-10-02T00:32:35.030Z,144226.03
2023-10-02T00:35:03.928Z,144226.03
2023-10-02T00:37:53.313Z,144229.66
2023-10-02T00:40:26.261Z,144233.31
2023-10-02T00:43:22.855Z,144229.66
2023-10-02T00:45:50.525Z,144222.41
2023-10-02T00:48:27.502Z,144118.38
2023-10-02T00:51:06.981Z,144200.63
2023-10-02T00:53:39.339Z,144188.53
2023-10-02T00:56:22.350Z,144106.31
2023-10-02T00:58:59.981Z,144181.28
2023-10-02T01:01:33.306Z,144175.25
2023-10-02T01:04:10.050Z,144184.91
2023-10-02T01:07:06.089Z,144174.00
2023-10-02T01:09:37.723Z,144176.44
2023-10-02T01:12:05.573Z,144170.41
2023-10-02T01:18:29.228Z,144157.09
2023-10-02T01:21:01.673Z,144147.44
2023-10-02T01:23:32.380Z,144053.09
2023-10-02T01:26:02.015Z,144132.88
2023-10-02T01:28:52.958Z,144130.50
2023-10-02T01:31:33.561Z,144123.22
2023-10-02T01:34:00.971Z,144108.72
2023-10-02T01:36:32.396Z,144108.72
2023-10-02T01:39:13.806Z,144109.91
2023-10-02T01:41:53.536Z,144111.16
2023-10-02T01:44:24.181Z,144102.69
2023-10-02T01:46:53.912Z,144097.84
2023-10-02T01:49:28.712Z,144086.94
2023-10-02T01:51:59.615Z,144085.75
2023-10-02T01:54:28.303Z,144077.28
2023-10-02T01:56:56.388Z,144066.41
2023-10-02T01:59:25.875Z,144065.16
2023-10-02T02:02:13.424Z,143978.13
2023-10-02T02:04:40.949Z,144054.31
2023-10-02T02:07:09.781Z,144050.66
2023-10-02T02:09:38.954Z,144041.00
2023-10-02T02:12:09.253Z,144041.00
2023-10-02T02:14:50.934Z,144036.16
2023-10-02T02:17:26.620Z,143946.69
2023-10-02T02:20:00.678Z,144021.66
2023-10-02T02:22:32.537Z,144016.84
2023-10-02T02:25:00.719Z,144001.09
2023-10-02T02:27:28.768Z,144002.34
2023-10-02T02:29:58.758Z,144009.56
2023-10-02T02:32:53.808Z,144008.38
2023-10-02T02:35:22.361Z,144008.38
2023-10-02T02:37:51.397Z,143985.41
2023-10-02T02:40:26.882Z,143992.63
2023-10-02T02:42:56.019Z,143989.03
2023-10-02T02:45:31.598Z,143990.25
2023-10-02T02:48:11.771Z,143980.56
2023-10-02T02:50:44.012Z,143978.13
2023-10-02T02:53:22.595Z,143964.84
2023-10-02T02:56:17.511Z,143970.91
2023-10-02T02:58:51.085Z,143975.75
2023-10-02T03:01:23.544Z,143860.91
2023-10-02T03:03:56.765Z,143964.84
2023-10-02T03:06:24.577Z,143968.47
2023-10-02T03:08:54.652Z,143970.91
2023-10-02T03:11:24.366Z,143895.97
2023-10-02T03:13:52.031Z,143949.13
2023-10-02T03:16:29.962Z,143958.81
2023-10-02T03:18:58.466Z,143782.41
2023-10-02T03:21:26.213Z,143957.59
2023-10-02T03:24:00.621Z,143846.41
2023-10-02T03:26:32.081Z,143951.53
2023-10-02T03:29:03.924Z,143946.69
2023-10-02T03:31:53.702Z,143939.47
2023-10-02T03:34:36.126Z,143932.22
2023-10-02T03:37:29.721Z,143933.41
2023-10-02T03:39:59.610Z,143935.84
2023-10-02T03:42:32.030Z,143944.31
2023-10-02T03:45:01.978Z,143957.59
2023-10-02T03:47:32.054Z,143951.53
2023-10-02T03:50:03.629Z,143946.69
2023-10-02T03:52:34.018Z,143874.19
2023-10-02T03:55:18.510Z,143949.13
2023-10-02T03:57:48.976Z,143945.50
2023-10-02T04:00:20.174Z,143932.22
2023-10-02T04:02:52.842Z,143927.38
2023-10-02T04:05:36.274Z,143922.56
2023-10-02T04:08:21.826Z,143928.56
2023-10-02T04:10:58.019Z,143920.13
2023-10-02T04:13:33.987Z,143929.81
2023-10-02T04:16:22.869Z,143926.19
2023-10-02T04:19:08.077Z,143918.91
2023-10-02T04:21:35.817Z,143903.22
2023-10-02T04:24:06.809Z,143763.09
2023-10-02T04:26:34.676Z,143883.84
2023-10-02T04:29:22.415Z,143875.44
2023-10-02T04:32:09.648Z,143842.78
2023-10-02T04:34:39.128Z,143888.75
2023-10-02T04:37:21.105Z,143886.31
2023-10-02T04:39:55.121Z,143875.44
2023-10-02T04:42:30.400Z,143879.03
2023-10-02T04:45:08.151Z,143876.63
2023-10-02T04:47:36.868Z,143862.16
2023-10-02T04:50:05.869Z,143830.72
2023-10-02T04:53:02.237Z,143862.16
2023-10-02T04:55:44.696Z,143772.75
2023-10-02T04:58:18.466Z,143854.88
2023-10-02T05:01:06.511Z,143856.06
2023-10-02T05:03:50.573Z,143852.47
2023-10-02T05:06:18.256Z,143848.84
2023-10-02T05:08:51.438Z,143854.88
2023-10-02T05:11:28.094Z,143837.94
2023-10-02T05:13:58.701Z,143839.19
2023-10-02T05:16:42.850Z,143840.38
2023-10-02T05:19:16.025Z,143831.94
2023-10-02T05:21:51.975Z,143835.56
2023-10-02T05:24:20.292Z,143837.94
2023-10-02T05:26:48.703Z,143835.56
2023-10-02T05:29:37.255Z,143833.13
2023-10-02T05:32:23.718Z,143808.97
2023-10-02T05:35:14.257Z,143845.22
2023-10-02T05:37:46.870Z,143828.28
2023-10-02T05:40:19.345Z,143833.13
2023-10-02T05:43:00.130Z,143831.94
2023-10-02T05:45:46.957Z,143842.78
2023-10-02T05:48:27.422Z,143840.38
2023-10-02T05:50:57.675Z,143864.53
2023-10-02T05:53:27.414Z,143871.81
2023-10-02T05:56:13.277Z,143888.75
2023-10-02T05:58:43.022Z,143897.16
2023-10-02T06:01:28.059Z,143911.69
2023-10-02T06:03:59.293Z,143898.41
2023-10-02T06:06:29.259Z,143915.28
2023-10-02T06:09:05.130Z,143920.13
2023-10-02T06:11:35.430Z,143932.22
2023-10-02T06:14:15.188Z,143934.66
2023-10-02T06:16:44.333Z,143946.69
2023-10-02T06:19:15.617Z,143956.38
2023-10-02T06:22:05.592Z,143808.97
2023-10-02T06:24:33.085Z,143995.06
2023-10-02T06:27:05.453Z,143852.47
2023-10-02T06:29:36.712Z,144020.47
2023-10-02T06:32:12.890Z,144045.81
2023-10-02T06:34:41.390Z,144067.59
2023-10-02T06:37:14.898Z,144074.88
2023-10-02T06:39:43.601Z,144086.94
2023-10-02T06:42:16.807Z,144125.66
2023-10-02T06:44:54.379Z,144137.72
2023-10-02T06:47:30.460Z,144159.50
2023-10-02T06:50:22.715Z,144129.28
2023-10-02T06:52:50.587Z,144126.84
2023-10-02T06:55:18.744Z,144145.00
2023-10-02T06:57:53.933Z,144085.75
2023-10-02T07:00:23.105Z,144228.44
2023-10-02T07:02:59.796Z,144234.50
2023-10-02T07:05:33.582Z,144223.59
2023-10-02T07:08:18.556Z,144232.06
2023-10-02T07:10:47.047Z,144265.97
2023-10-02T07:13:20.274Z,144304.66
2023-10-02T07:15:49.125Z,144362.75
2023-10-02T07:18:16.787Z,144400.25
2023-10-02T07:20:44.430Z,144430.53
2023-10-02T07:23:20.583Z,144434.16
2023-10-02T07:25:53.932Z,144475.31
2023-10-02T07:28:24.341Z,144529.81
2023-10-02T07:30:51.940Z,144411.19
2023-10-02T07:33:20.269Z,144478.97
2023-10-02T07:35:54.000Z,144554.00
2023-10-02T07:38:22.949Z,144608.50
2023-10-02T07:40:50.904Z,144583.09
2023-10-02T07:43:22.179Z,144626.69
2023-10-02T07:46:02.944Z,144672.75
2023-10-02T07:48:37.470Z,144681.25
2023-10-02T07:51:07.533Z,144570.97
2023-10-02T07:53:40.556Z,144743.03
2023-10-02T07:56:12.580Z,144745.44
2023-10-02T07:58:42.368Z,144779.41
2023-10-02T08:01:12.960Z,144814.50
2023-10-02T08:03:50.812Z,144784.25
2023-10-02T08:06:22.749Z,144848.47
2023-10-02T08:09:10.381Z,144871.50
2023-10-02T08:11:38.261Z,144837.56
2023-10-02T08:14:07.180Z,144945.44
2023-10-02T08:16:55.172Z,144956.38
2023-10-02T08:19:22.373Z,145077.63
2023-10-02T08:21:49.472Z,145104.31
2023-10-02T08:24:16.529Z,145116.44
2023-10-02T08:26:47.204Z,145106.75
2023-10-02T08:29:16.150Z,145133.44
2023-10-02T08:31:45.309Z,145103.09
2023-10-02T08:34:20.809Z,145148.00
2023-10-02T08:37:07.962Z,145077.63
2023-10-02T08:39:42.741Z,145225.66
2023-10-02T08:42:12.682Z,145240.19
2023-10-02T08:44:44.409Z,145311.88
2023-10-02T08:47:13.880Z,145214.69
2023-10-02T08:49:41.745Z,145279.09
2023-10-02T08:52:10.156Z,145449.03
2023-10-02T08:54:40.532Z,145507.34
2023-10-02T08:57:10.079Z,145555.91
2023-10-02T08:59:41.622Z,145588.75
2023-10-02T09:02:16.237Z,145609.38
2023-10-02T09:04:53.225Z,145615.44
2023-10-02T09:07:47.119Z,145638.56
2023-10-02T09:10:26.012Z,145670.09
2023-10-02T09:13:16.194Z,145696.84
2023-10-02T09:15:47.999Z,145728.50
2023-10-02T09:19:20.425Z,145709.06
2023-10-02T09:21:48.917Z,145773.47
2023-10-02T09:24:23.810Z,145651.88
2023-10-02T09:26:51.443Z,145772.25
2023-10-02T09:29:20.326Z,145791.69
2023-10-02T09:31:48.694Z,145813.59
2023-10-02T09:34:35.356Z,145839.09
2023-10-02T09:37:30.588Z,145888.94
2023-10-02T09:40:02.069Z,145927.88
2023-10-02T09:42:34.425Z,145974.06
2023-10-02T09:45:09.847Z,146000.84
2023-10-02T09:47:47.759Z,146059.22
2023-10-02T09:50:30.574Z,146082.38
2023-10-02T09:53:00.130Z,146112.78
2023-10-02T09:55:50.973Z,146139.56
2023-10-02T09:58:33.174Z,146115.22
2023-10-02T10:01:28.246Z,146180.91
2023-10-02T10:03:56.385Z,146234.47
2023-10-02T10:06:29.379Z,146263.72
2023-10-02T10:09:16.443Z,146285.59
2023-10-02T10:11:43.777Z,146300.25
2023-10-02T10:14:38.861Z,146356.22
2023-10-02T10:17:49.384Z,146363.50
2023-10-02T10:20:24.078Z,146383.03
2023-10-02T10:22:58.088Z,146397.63
2023-10-02T10:25:33.920Z,146412.28
2023-10-02T10:28:07.477Z,146457.34
2023-10-02T10:30:39.290Z,146458.53
2023-10-02T10:33:12.979Z,146507.28
2023-10-02T10:35:51.113Z,146510.94
2023-10-02T10:38:28.094Z,146507.28
2023-10-02T10:41:07.016Z,146526.75
2023-10-02T10:43:54.511Z,146552.34
2023-10-02T10:46:32.424Z,146487.81
2023-10-02T10:49:09.903Z,146604.72
2023-10-02T10:51:41.388Z,146676.63
2023-10-02T10:54:13.725Z,146687.56
2023-10-02T10:56:46.330Z,146687.56
2023-10-02T10:59:22.935Z,146560.88
2023-10-02T11:02:10.234Z,146700.97
2023-10-02T11:04:40.982Z,146753.47
2023-10-02T11:07:20.749Z,146733.94
2023-10-02T11:10:15.426Z,146755.88
2023-10-02T11:13:01.811Z,146740.03
2023-10-02T11:15:47.430Z,146714.44
2023-10-02T11:18:24.524Z,146768.06
2023-10-02T11:20:57.839Z,146804.66
2023-10-02T11:23:45.213Z,146818.06
2023-10-02T11:26:15.840Z,146788.78
2023-10-02T11:28:45.754Z,146760.75
2023-10-02T11:31:33.159Z,146825.34
2023-10-02T11:34:31.818Z,146763.19
2023-10-02T11:36:56.440Z,146814.41
2023-10-02T11:39:29.497Z,146816.84
2023-10-02T11:41:57.099Z,146768.06
2023-10-02T11:44:24.476Z,146846.09
2023-10-02T11:46:51.673Z,146863.19
2023-10-02T11:49:18.808Z,146855.84
2023-10-02T11:51:46.884Z,146919.25
2023-10-02T11:54:15.210Z,146877.78
2023-10-02T11:56:44.117Z,146904.63
2023-10-02T11:59:15.920Z,146872.91
2023-10-02T12:01:46.274Z,146919.25
2023-10-02T12:04:13.566Z,146935.09
2023-10-02T12:06:40.846Z,146874.13
2023-10-02T12:09:08.112Z,146857.06
2023-10-02T12:11:35.776Z,146915.59
2023-10-02T12:14:06.400Z,146781.50
2023-10-02T12:16:33.693Z,146865.59
2023-10-02T12:19:01.181Z,146914.38
2023-10-02T12:21:29.525Z,146990.00
2023-10-02T12:24:01.726Z,146954.63
2023-10-02T12:26:30.095Z,146941.22
2023-10-02T12:28:57.360Z,146941.22
2023-10-02T12:31:25.229Z,146980.22
2023-10-02T12:33:54.378Z,146929.00
2023-10-02T12:36:23.600Z,146899.75
2023-10-02T12:38:51.772Z,146970.47
2023-10-02T12:41:22.538Z,147001.00
2023-10-02T12:43:57.489Z,146860.72
2023-10-02T12:46:28.342Z,146960.72
2023-10-02T12:48:58.580Z,146960.72
2023-10-02T12:51:26.714Z,146924.13
2023-10-02T12:53:54.192Z,146875.34
2023-10-02T12:56:22.843Z,146987.59
2023-10-02T12:58:51.998Z,146921.72
2023-10-02T13:01:20.911Z,146987.59
2023-10-02T13:03:48.191Z,146970.47
2023-10-02T13:06:16.419Z,146927.78
2023-10-02T13:08:45.408Z,147008.31
2023-10-02T13:11:14.985Z,146983.88
2023-10-02T13:13:47.378Z,147024.19
2023-10-02T13:16:15.203Z,147065.66
2023-10-02T13:18:45.062Z,147077.88
2023-10-02T13:21:23.960Z,147008.31
2023-10-02T13:23:52.113Z,147055.91
2023-10-02T13:26:19.335Z,147068.06
2023-10-02T13:28:49.628Z,147086.38
2023-10-02T13:31:20.891Z,147069.31
2023-10-02T13:33:52.723Z,147116.88
2023-10-02T13:36:24.512Z,147131.53
2023-10-02T13:38:54.428Z,147104.66
2023-10-02T13:41:22.904Z,147116.88
2023-10-02T13:43:53.258Z,147004.69
2023-10-02T13:46:24.449Z,147064.44
2023-10-02T13:48:53.796Z,147055.91
2023-10-02T13:51:22.387Z,147087.63
2023-10-02T13:53:50.939Z,147107.13
2023-10-02T13:56:26.236Z,147129.09
2023-10-02T13:58:54.711Z,147116.88
2023-10-02T14:01:26.120Z,147107.13
2023-10-02T14:03:57.109Z,147115.69
2023-10-02T14:06:26.393Z,147113.22
2023-10-02T14:08:53.984Z,147099.78
2023-10-02T14:11:23.628Z,147122.97
2023-10-02T14:13:52.489Z,147131.53
2023-10-02T14:16:23.172Z,147163.25
2023-10-02T14:18:53.229Z,147126.66
2023-10-02T14:21:25.381Z,147214.50
2023-10-02T14:23:54.167Z,146987.59
2023-10-02T14:26:23.397Z,147197.44
2023-10-02T14:28:52.478Z,147138.84
2023-10-02T14:31:25.041Z,147179.13
2023-10-02T14:33:52.364Z,147177.88
2023-10-02T14:36:20.357Z,147122.97
2023-10-02T14:38:48.579Z,147141.28
2023-10-02T14:41:15.853Z,147132.78
2023-10-02T14:43:43.043Z,147136.41
2023-10-02T14:46:10.355Z,147099.78
2023-10-02T14:51:10.069Z,147060.78
2023-10-02T14:53:38.225Z,147105.94
2023-10-02T14:56:06.598Z,147058.31
2023-10-02T14:58:35.978Z,146982.69
2023-10-02T15:01:14.859Z,146953.38
2023-10-02T15:03:45.843Z,146868.03
2023-10-02T15:06:16.872Z,147133.97
2023-10-02T15:08:44.096Z,147046.16
2023-10-02T15:11:15.189Z,147094.91
2023-10-02T15:13:43.995Z,147011.97
2023-10-02T15:16:19.942Z,147085.16
2023-10-02T15:18:47.959Z,147060.78
2023-10-02T15:21:18.011Z,146994.94
2023-10-02T15:23:46.080Z,147063.19
2023-10-02T15:26:15.328Z,147065.66
2023-10-02T15:28:43.694Z,147055.91
2023-10-02T15:31:14.302Z,146950.97
2023-10-02T15:33:42.439Z,146977.78
2023-10-02T15:36:09.942Z,146992.47
2023-10-02T15:38:37.662Z,146865.59
2023-10-02T15:41:05.107Z,146925.34
2023-10-02T15:43:32.270Z,146941.22
2023-10-02T15:45:59.625Z,146921.72
2023-10-02T15:48:27.127Z,146894.88
2023-10-02T15:50:55.072Z,146892.41
2023-10-02T15:53:22.868Z,146890.00
2023-10-02T15:55:50.015Z,146880.22
2023-10-02T15:58:17.072Z,146876.59
2023-10-02T16:00:46.637Z,146875.34
2023-10-02T16:03:13.920Z,146877.78
2023-10-02T16:05:41.860Z,146869.25
2023-10-02T16:08:09.904Z,146865.59
2023-10-02T16:10:37.856Z,146782.69
2023-10-02T16:13:06.770Z,146824.13
2023-10-02T16:15:36.211Z,146799.78
2023-10-02T16:18:06.872Z,146763.19
2023-10-02T16:20:36.269Z,146760.75
2023-10-02T16:23:03.989Z,146680.28
2023-10-02T16:25:32.762Z,146709.50
2023-10-02T16:28:01.105Z,146682.69
2023-10-02T16:30:28.379Z,146642.47
2023-10-02T16:32:56.183Z,146646.13
2023-10-02T16:35:31.168Z,146616.91
2023-10-02T16:38:01.831Z,146536.50
2023-10-02T16:40:30.600Z,146582.78
2023-10-02T16:42:58.577Z,146573.03
2023-10-02T16:45:25.896Z,146526.75
2023-10-02T16:47:53.661Z,146490.22
2023-10-02T16:50:21.477Z,146446.41
2023-10-02T16:52:49.280Z,146403.69
2023-10-02T16:55:22.171Z,146353.78
2023-10-02T16:57:51.593Z,146275.84
2023-10-02T17:00:24.299Z,146280.72
2023-10-02T17:02:53.099Z,146241.81
2023-10-02T17:05:20.927Z,146200.44
2023-10-02T17:07:51.263Z,146191.91
2023-10-02T17:10:22.044Z,146093.31
2023-10-02T17:12:51.639Z,146132.28
2023-10-02T17:15:19.982Z,146093.31
2023-10-02T17:17:49.379Z,146090.91
2023-10-02T17:20:18.704Z,146056.78
2023-10-02T17:22:47.633Z,146044.66
2023-10-02T17:25:25.418Z,146017.88
2023-10-02T17:27:54.869Z,145988.66
2023-10-02T17:30:22.252Z,145952.19
2023-10-02T17:32:50.250Z,145944.91
2023-10-02T17:35:18.826Z,145921.81
2023-10-02T17:37:45.932Z,145807.53
2023-10-02T17:40:14.050Z,145887.72
2023-10-02T17:42:41.405Z,145876.81
2023-10-02T17:45:09.556Z,145847.59
2023-10-02T17:47:38.151Z,145845.19
2023-10-02T17:50:07.306Z,145842.75
2023-10-02T17:52:35.262Z,145767.41
2023-10-02T17:55:06.317Z,145811.13
2023-10-02T17:57:35.207Z,145783.19
2023-10-02T18:00:04.895Z,145750.38
2023-10-02T18:02:41.016Z,145728.50
2023-10-02T18:05:10.814Z,145617.88
2023-10-02T18:07:39.169Z,145558.34
2023-10-02T18:10:07.067Z,145665.25
2023-10-02T18:12:36.181Z,145660.38
2023-10-02T18:15:05.421Z,145610.56
2023-10-02T18:17:32.868Z,145633.66
2023-10-02T18:20:00.120Z,145613.03
2023-10-02T18:22:28.418Z,145611.81
2023-10-02T18:24:55.473Z,145611.81
2023-10-02T18:27:23.286Z,145582.63
2023-10-02T18:29:50.342Z,145560.75
2023-10-02T18:32:17.983Z,145543.78
2023-10-02T18:34:45.108Z,145525.56
2023-10-02T18:37:12.740Z,145506.09
2023-10-02T18:39:40.032Z,145491.53
2023-10-02T18:42:07.528Z,145478.16
2023-10-02T18:44:35.733Z,145470.91
2023-10-02T18:47:03.569Z,145468.47
2023-10-02T18:49:34.388Z,145463.63
2023-10-02T18:52:03.052Z,145336.13
2023-10-02T18:54:30.585Z,145438.13
2023-10-02T18:57:02.412Z,145422.31
2023-10-02T18:59:29.621Z,145406.56
2023-10-02T19:01:56.832Z,145387.09
2023-10-02T19:04:23.918Z,145376.19
2023-10-02T19:06:51.039Z,145361.63
2023-10-02T19:09:21.491Z,145316.72
2023-10-02T19:11:49.099Z,145366.50
2023-10-02T19:14:18.618Z,145373.75
2023-10-02T19:16:45.937Z,145342.19
2023-10-02T19:19:13.069Z,145337.31
2023-10-02T19:21:41.706Z,145322.78
2023-10-02T19:24:09.572Z,145317.91
2023-10-02T19:26:37.387Z,145246.25
2023-10-02T19:29:05.042Z,145290.00
2023-10-02T19:31:32.395Z,145302.16
2023-10-02T19:33:59.640Z,145201.41
2023-10-02T19:36:26.810Z,145191.66
2023-10-02T19:38:54.298Z,145286.34
2023-10-02T19:41:21.573Z,145285.16
2023-10-02T19:43:54.269Z,145252.41
2023-10-02T19:46:23.036Z,145249.91
2023-10-02T19:48:51.977Z,145131.00
2023-10-02T19:51:19.478Z,145229.28
2023-10-02T19:53:46.628Z,145225.66
2023-10-02T19:56:15.001Z,145220.78
2023-10-02T19:58:42.915Z,145249.91
2023-10-02T20:01:10.807Z,145232.91
2023-10-02T20:03:38.442Z,145246.25
2023-10-02T20:06:11.152Z,145195.28
2023-10-02T20:08:39.283Z,145247.50
2023-10-02T20:11:06.935Z,145240.19
2023-10-02T20:13:36.344Z,145262.09
2023-10-02T20:16:05.213Z,145259.66
2023-10-02T20:18:32.545Z,145223.19
2023-10-02T20:21:00.065Z,145201.41
2023-10-02T20:23:37.091Z,145223.19
2023-10-02T20:26:13.211Z,145208.66
2023-10-02T20:28:40.367Z,145218.34
2023-10-02T20:31:14.733Z,145206.25
2023-10-02T20:33:42.584Z,145191.66
2023-10-02T20:36:10.692Z,145191.66
2023-10-02T20:38:39.017Z,145157.69
2023-10-02T20:41:06.425Z,145196.50
2023-10-02T20:43:33.762Z,145241.41
2023-10-02T20:46:01.443Z,145214.69
2023-10-02T20:48:28.833Z,145168.59
2023-10-02T20:50:56.216Z,145172.25
2023-10-02T20:53:23.596Z,145155.25
2023-10-02T20:55:54.942Z,145143.16
2023-10-02T20:58:23.021Z,145138.31
2023-10-02T21:00:50.156Z,145127.34
2023-10-02T21:03:17.363Z,145099.47
2023-10-02T21:05:44.870Z,144990.31
2023-10-02T21:08:14.043Z,145065.50
2023-10-02T21:10:41.429Z,144984.25
2023-10-02T21:13:09.121Z,145029.13
2023-10-02T21:15:36.680Z,145060.66
2023-10-02T21:18:06.177Z,145041.22
2023-10-02T21:20:33.728Z,144985.47
2023-10-02T21:23:00.831Z,145048.53
2023-10-02T21:25:27.909Z,144956.38
2023-10-02T21:27:55.383Z,144943.03
2023-10-02T21:30:22.607Z,145021.84
2023-10-02T21:32:49.845Z,145009.69
2023-10-02T21:35:17.760Z,144990.31
2023-10-02T21:37:44.849Z,144998.81
2023-10-02T21:40:13.720Z,144996.34
2023-10-02T21:42:41.491Z,144974.56
2023-10-02T21:45:10.905Z,144968.47
2023-10-02T21:47:38.299Z,144910.31
2023-10-02T21:50:06.661Z,144866.66
2023-10-02T21:52:38.713Z,144939.38
2023-10-02T21:55:10.619Z,144922.41
2023-10-02T21:57:38.184Z,144907.88
2023-10-02T22:00:20.820Z,144901.81
2023-10-02T22:02:47.970Z,144759.97
2023-10-02T22:05:15.150Z,144888.47
2023-10-02T22:07:42.260Z,144888.47
2023-10-02T22:10:09.924Z,144878.78
2023-10-02T22:12:37.026Z,144721.22
2023-10-02T22:15:04.973Z,144846.03
2023-10-02T22:17:32.138Z,144827.84
2023-10-02T22:19:59.298Z,144814.50
2023-10-02T22:22:27.768Z,144682.44
2023-10-02T22:24:56.202Z,144813.31
2023-10-02T22:27:23.311Z,144783.03
2023-10-02T22:29:50.372Z,144837.56
2023-10-02T22:32:22.371Z,144808.47
2023-10-02T22:34:49.439Z,144779.41
2023-10-02T22:37:16.561Z,144821.81
2023-10-02T22:39:43.642Z,144846.03
2023-10-02T22:42:12.431Z,144803.63
2023-10-02T22:44:39.875Z,144835.13
2023-10-02T22:47:07.203Z,144816.97
2023-10-02T22:49:34.554Z,144750.28
2023-10-02T22:52:01.648Z,144781.78
2023-10-02T22:54:31.668Z,144716.38
2023-10-02T22:57:03.230Z,144813.31
2023-10-02T22:59:30.925Z,144826.66
2023-10-02T23:02:00.770Z,144844.81
2023-10-02T23:04:28.440Z,144826.66
2023-10-02T23:06:55.708Z,144861.81
2023-10-02T23:09:25.368Z,144740.59
2023-10-02T23:11:53.225Z,144839.97
2023-10-02T23:14:23.822Z,144820.59
2023-10-02T23:16:51.347Z,144692.16
2023-10-02T23:19:21.072Z,144806.06
2023-10-02T23:21:48.351Z,144789.09
2023-10-02T23:24:17.561Z,144785.44
2023-10-02T23:26:45.119Z,144786.63
2023-10-02T23:29:13.667Z,144801.22
2023-10-02T23:31:41.755Z,144735.75
2023-10-02T23:34:09.460Z,144786.63
2023-10-02T23:36:38.276Z,144756.38
2023-10-02T23:39:10.018Z,144747.88
2023-10-02T23:41:37.177Z,144734.56
2023-10-02T23:44:06.386Z,144711.53
2023-10-02T23:46:34.042Z,144700.59
2023-10-02T23:49:03.253Z,144690.94
2023-10-02T23:51:32.643Z,144676.41
2023-10-02T23:53:59.813Z,144675.19
2023-10-02T23:56:26.996Z,144684.88
2023-10-02T23:58:56.725Z,144624.28
